createdAt,value
2022-09-02T00:02:10.667Z,1.50
2022-09-02T00:04:39.435Z,1.20
2022-09-02T00:07:08.742Z,1.30
2022-09-02T00:09:37.602Z,1.30
2022-09-02T00:12:06.715Z,1.40
2022-09-02T00:14:37.894Z,1.10
2022-09-02T00:17:06.085Z,1.65
2022-09-02T00:19:34.309Z,1.15
2022-09-02T00:22:03.338Z,1.42
2022-09-02T00:24:33.421Z,1.20
2022-09-02T00:27:01.385Z,1.35
2022-09-02T00:29:29.810Z,1.20
2022-09-02T00:31:58.222Z,1.13
2022-09-02T00:34:27.224Z,1.20
2022-09-02T00:36:55.150Z,1.05
2022-09-02T00:39:23.034Z,1.20
2022-09-02T00:41:52.592Z,1.30
2022-09-02T00:44:22.221Z,1.20
2022-09-02T00:46:50.153Z,1.30
2022-09-02T00:49:25.112Z,1.02
2022-09-02T00:51:56.684Z,1.10
2022-09-02T00:54:26.646Z,1.30
2022-09-02T00:56:56.361Z,1.33
2022-09-02T00:59:29.022Z,1.10
2022-09-02T01:01:57.055Z,1.02
2022-09-02T01:04:25.217Z,1.10
2022-09-02T01:06:54.496Z,1.10
2022-09-02T01:09:23.263Z,1.38
2022-09-02T01:11:55.046Z,1.17
2022-09-02T01:14:28.723Z,1.10
2022-09-02T01:16:59.963Z,1.20
2022-09-02T01:19:30.789Z,1.30
2022-09-02T01:22:00.158Z,1.17
2022-09-02T01:24:31.242Z,1.05
2022-09-02T01:27:00.585Z,1.20
2022-09-02T01:29:29.859Z,1.40
2022-09-02T01:31:58.307Z,1.15
2022-09-02T01:34:26.957Z,1.00
2022-09-02T01:36:54.876Z,1.33
2022-09-02T01:39:24.140Z,1.20
2022-09-02T01:41:52.833Z,1.40
2022-09-02T01:44:20.869Z,1.15
2022-09-02T01:46:48.951Z,1.17
2022-09-02T01:49:16.862Z,1.10
2022-09-02T01:51:44.768Z,1.17
2022-09-02T01:54:12.921Z,1.25
2022-09-02T01:56:42.528Z,1.38
2022-09-02T01:59:11.810Z,1.08
2022-09-02T02:01:39.901Z,1.30
2022-09-02T02:04:12.673Z,1.10
2022-09-02T02:06:42.575Z,1.08
2022-09-02T02:09:11.175Z,1.33
2022-09-02T02:11:39.457Z,1.30
2022-09-02T02:14:08.877Z,1.05
2022-09-02T02:16:36.954Z,1.10
2022-09-02T02:19:05.510Z,1.10
2022-09-02T02:21:33.884Z,1.40
2022-09-02T02:24:01.954Z,1.23
2022-09-02T02:26:29.930Z,0.90
2022-09-02T02:28:57.817Z,1.15
2022-09-02T02:31:27.212Z,1.33
2022-09-02T02:33:55.205Z,1.20
2022-09-02T02:36:23.746Z,1.10
2022-09-02T02:38:51.674Z,1.23
2022-09-02T02:41:19.635Z,1.17
2022-09-02T02:43:48.111Z,1.20
2022-09-02T02:46:16.569Z,1.02
2022-09-02T02:48:45.877Z,1.20
2022-09-02T02:51:14.750Z,1.42
2022-09-02T02:53:42.746Z,1.30
2022-09-02T02:56:11.475Z,1.20
2022-09-02T02:58:39.415Z,1.25
2022-09-02T03:01:08.199Z,1.30
2022-09-02T03:03:36.134Z,1.10
2022-09-02T03:06:05.550Z,1.20
2022-09-02T03:08:35.280Z,1.15
2022-09-02T03:11:04.030Z,1.33
2022-09-02T03:13:32.885Z,1.30
2022-09-02T03:16:00.991Z,1.40
2022-09-02T03:18:29.005Z,1.20
2022-09-02T03:20:56.894Z,1.40
2022-09-02T03:23:26.257Z,1.20
2022-09-02T03:25:54.373Z,1.40
2022-09-02T03:28:22.270Z,1.30
2022-09-02T03:30:50.245Z,1.35
2022-09-02T03:33:18.257Z,1.45
2022-09-02T03:35:47.040Z,1.50
2022-09-02T03:38:15.180Z,1.40
2022-09-02T03:40:44.915Z,1.67
2022-09-02T03:43:13.191Z,1.30
2022-09-02T03:45:41.897Z,1.38
2022-09-02T03:48:12.308Z,1.10
2022-09-02T03:50:42.258Z,1.50
2022-09-02T03:53:19.807Z,1.30
2022-09-02T03:55:50.758Z,1.33
2022-09-02T03:58:20.082Z,1.52
2022-09-02T04:00:52.648Z,1.40
2022-09-02T04:03:21.506Z,1.73
2022-09-02T04:05:50.572Z,1.38
2022-09-02T04:08:19.437Z,1.48
2022-09-02T04:10:48.849Z,1.30
2022-09-02T04:13:16.848Z,1.33
2022-09-02T04:15:48.251Z,1.20
2022-09-02T04:18:17.293Z,1.13
2022-09-02T04:20:46.119Z,1.70
2022-09-02T04:23:14.215Z,1.67
2022-09-02T04:25:43.171Z,1.50
2022-09-02T04:28:13.131Z,1.48
2022-09-02T04:30:42.561Z,1.58
2022-09-02T04:33:11.147Z,1.45
2022-09-02T04:35:41.202Z,1.60
2022-09-02T04:38:09.693Z,1.27
2022-09-02T04:40:40.967Z,1.70
2022-09-02T04:43:08.997Z,1.38
2022-09-02T04:45:40.785Z,1.45
2022-09-02T04:48:08.801Z,2.00
2022-09-02T04:50:37.632Z,1.50
2022-09-02T04:53:06.786Z,1.50
2022-09-02T04:55:35.333Z,1.60
2022-09-02T04:58:03.250Z,1.73
2022-09-02T05:00:31.233Z,1.40
2022-09-02T05:03:00.588Z,1.65
2022-09-02T05:05:28.557Z,1.70
2022-09-02T05:07:56.554Z,1.60
2022-09-02T05:10:24.427Z,1.65
2022-09-02T05:12:52.724Z,1.58
2022-09-02T05:15:21.020Z,1.20
2022-09-02T05:17:49.057Z,1.42
2022-09-02T05:20:18.368Z,1.45
2022-09-02T05:22:46.258Z,1.70
2022-09-02T05:25:14.211Z,1.67
2022-09-02T05:27:42.120Z,1.67
2022-09-02T05:30:10.634Z,1.70
2022-09-02T05:32:38.509Z,1.80
2022-09-02T05:35:07.145Z,1.95
2022-09-02T05:37:37.466Z,1.85
2022-09-02T05:40:07.686Z,1.83
2022-09-02T05:42:36.117Z,1.90
2022-09-02T05:45:04.466Z,1.80
2022-09-02T05:47:32.359Z,1.88
2022-09-02T05:50:01.579Z,1.90
2022-09-02T05:52:31.226Z,1.83
2022-09-02T05:55:00.680Z,1.90
2022-09-02T05:57:28.741Z,1.80
2022-09-02T05:59:57.015Z,1.85
2022-09-02T06:02:25.922Z,1.85
2022-09-02T06:04:55.645Z,1.90
2022-09-02T06:07:25.599Z,1.85
2022-09-02T06:09:53.882Z,1.60
2022-09-02T06:12:23.592Z,2.17
2022-09-02T06:14:51.560Z,1.85
2022-09-02T06:17:20.837Z,1.90
2022-09-02T06:19:49.018Z,1.80
2022-09-02T06:22:20.727Z,2.08
2022-09-02T06:24:48.609Z,2.10
2022-09-02T06:27:16.510Z,1.83
2022-09-02T06:29:46.980Z,3.95
2022-09-02T06:32:14.846Z,1.95
2022-09-02T06:34:42.732Z,2.80
2022-09-02T06:37:10.602Z,2.08
2022-09-02T06:39:43.796Z,2.10
2022-09-02T06:42:11.898Z,2.13
2022-09-02T06:44:39.992Z,2.55
2022-09-02T06:47:09.336Z,2.35
2022-09-02T06:49:37.331Z,2.25
2022-09-02T06:52:06.161Z,2.08
2022-09-02T06:54:34.092Z,2.33
2022-09-02T06:57:01.982Z,2.50
2022-09-02T06:59:29.890Z,2.63
2022-09-02T07:01:58.021Z,2.75
2022-09-02T07:04:45.287Z,2.20
2022-09-02T07:07:14.537Z,2.38
2022-09-02T07:09:42.452Z,2.58
2022-09-02T07:12:10.692Z,2.80
2022-09-02T07:14:40.161Z,2.53
2022-09-02T07:17:09.326Z,2.60
2022-09-02T07:19:38.831Z,2.63
2022-09-02T07:22:07.172Z,2.25
2022-09-02T07:24:35.369Z,2.75
2022-09-02T07:27:03.861Z,2.97
2022-09-02T07:29:32.052Z,2.63
2022-09-02T07:32:00.269Z,2.67
2022-09-02T07:34:29.247Z,2.50
2022-09-02T07:37:03.285Z,2.78
2022-09-02T07:39:32.179Z,2.60
2022-09-02T07:42:00.472Z,2.70
2022-09-02T07:44:28.804Z,2.90
2022-09-02T07:46:56.744Z,3.10
2022-09-02T07:49:24.987Z,3.05
2022-09-02T07:51:53.040Z,2.75
2022-09-02T07:54:25.137Z,2.95
2022-09-02T07:56:53.168Z,2.63
2022-09-02T07:59:22.351Z,2.90
2022-09-02T08:01:51.493Z,2.80
2022-09-02T08:04:20.344Z,2.55
2022-09-02T08:06:48.350Z,2.80
2022-09-02T08:09:16.264Z,3.28
2022-09-02T08:11:48.024Z,3.08
2022-09-02T08:14:19.843Z,3.08
2022-09-02T08:16:49.773Z,3.03
2022-09-02T08:19:17.830Z,3.10
2022-09-02T08:21:45.925Z,2.72
2022-09-02T08:24:13.830Z,3.10
2022-09-02T08:26:41.834Z,3.17
2022-09-02T08:29:11.180Z,3.03
2022-09-02T08:31:39.405Z,3.35
2022-09-02T08:34:07.448Z,3.15
2022-09-02T08:36:35.376Z,3.45
2022-09-02T08:39:04.634Z,3.67
2022-09-02T08:41:38.840Z,3.38
2022-09-02T08:44:08.648Z,3.55
2022-09-02T08:46:38.752Z,3.53
2022-09-02T08:49:11.975Z,3.72
2022-09-02T08:51:51.016Z,3.40
2022-09-02T08:54:27.164Z,3.70
2022-09-02T08:56:56.204Z,3.67
2022-09-02T08:59:27.277Z,3.65
2022-09-02T09:02:03.780Z,3.35
2022-09-02T09:04:53.464Z,3.33
2022-09-02T09:07:28.540Z,3.90
2022-09-02T09:10:08.037Z,3.38
2022-09-02T09:12:52.797Z,3.67
2022-09-02T09:15:29.611Z,3.65
2022-09-02T09:18:00.699Z,3.95
2022-09-02T09:20:32.685Z,3.95
2022-09-02T09:23:02.691Z,3.83
2022-09-02T09:25:31.089Z,4.07
2022-09-02T09:27:59.553Z,4.15
2022-09-02T09:30:28.118Z,4.18
2022-09-02T09:32:59.985Z,3.58
2022-09-02T09:35:29.490Z,3.53
2022-09-02T09:37:57.783Z,3.30
2022-09-02T09:40:31.954Z,3.50
2022-09-02T09:43:15.218Z,3.90
2022-09-02T09:45:45.663Z,3.75
2022-09-02T09:48:27.497Z,3.45
2022-09-02T09:51:15.940Z,3.40
2022-09-02T09:53:44.918Z,3.85
2022-09-02T09:56:37.381Z,3.58
2022-09-02T09:59:09.998Z,4.10
2022-09-02T10:01:38.475Z,3.70
2022-09-02T10:04:32.217Z,3.80
2022-09-02T10:06:58.472Z,3.87
2022-09-02T10:09:35.039Z,4.35
2022-09-02T10:12:05.641Z,3.45
2022-09-02T10:14:37.180Z,3.97
2022-09-02T10:17:24.486Z,3.92
2022-09-02T10:19:58.866Z,4.05
2022-09-02T10:22:59.335Z,4.40
2022-09-02T10:25:34.638Z,3.80
2022-09-02T10:28:11.294Z,3.95
2022-09-02T10:30:50.474Z,4.00
2022-09-02T10:33:34.963Z,3.80
2022-09-02T10:36:18.155Z,4.60
2022-09-02T10:38:50.591Z,4.10
2022-09-02T10:41:31.678Z,4.72
2022-09-02T10:44:10.926Z,3.75
2022-09-02T10:46:47.193Z,4.20
2022-09-02T10:49:25.059Z,4.30
2022-09-02T10:52:05.397Z,4.43
2022-09-02T10:54:43.918Z,4.28
2022-09-02T10:57:16.667Z,4.82
2022-09-02T10:59:52.078Z,3.67
2022-09-02T11:02:24.511Z,4.00
2022-09-02T11:04:59.177Z,4.25
2022-09-02T11:07:31.213Z,4.00
2022-09-02T11:10:06.625Z,3.83
2022-09-02T11:12:38.446Z,3.85
2022-09-02T11:15:17.006Z,4.20
2022-09-02T11:17:52.627Z,3.97
2022-09-02T11:20:31.370Z,3.53
2022-09-02T11:23:08.134Z,3.40
2022-09-02T11:25:42.718Z,3.58
2022-09-02T11:28:26.710Z,3.70
2022-09-02T11:31:01.150Z,3.33
2022-09-02T11:33:33.283Z,3.33
2022-09-02T11:38:37.541Z,3.47
2022-09-02T11:41:43.323Z,3.90
2022-09-02T11:44:41.579Z,3.40
2022-09-02T11:47:49.217Z,3.20
2022-09-02T11:50:35.786Z,3.22
2022-09-02T11:53:19.239Z,3.25
2022-09-02T11:55:56.322Z,3.85
2022-09-02T11:58:36.353Z,3.60
2022-09-02T12:01:25.550Z,3.42
2022-09-02T12:04:40.066Z,4.00
2022-09-02T12:07:20.495Z,3.13
2022-09-02T12:09:56.014Z,3.13
2022-09-02T12:12:59.021Z,3.30
2022-09-02T12:15:28.539Z,2.90
2022-09-02T12:18:31.210Z,3.20
2022-09-02T12:21:15.935Z,3.53
2022-09-02T12:24:22.437Z,2.88
2022-09-02T12:27:24.041Z,2.60
2022-09-02T12:29:52.428Z,2.97
2022-09-02T12:33:03.218Z,2.88
2022-09-02T12:35:37.258Z,2.88
2022-09-02T12:38:25.534Z,2.90
2022-09-02T12:40:59.721Z,2.72
2022-09-02T12:43:32.957Z,2.75
2022-09-02T12:46:14.003Z,2.80
2022-09-02T12:48:50.102Z,2.75
2022-09-02T12:51:51.042Z,2.42
2022-09-02T12:54:24.186Z,2.53
2022-09-02T12:56:53.586Z,2.58
2022-09-02T12:59:29.381Z,2.17
2022-09-02T13:02:11.613Z,2.28
2022-09-02T13:04:47.348Z,2.35
2022-09-02T13:07:54.134Z,2.17
2022-09-02T13:11:21.064Z,2.13
2022-09-02T13:14:33.759Z,2.20
2022-09-02T13:17:37.469Z,1.80
2022-09-02T13:20:27.144Z,2.33
2022-09-02T13:23:19.353Z,2.33
2022-09-02T13:26:27.542Z,2.40
2022-09-02T13:29:40.483Z,2.65
2022-09-02T13:32:14.121Z,2.53
2022-09-02T13:34:43.787Z,2.50
2022-09-02T13:37:36.681Z,2.60
2022-09-02T13:40:18.177Z,2.88
2022-09-02T13:42:51.458Z,3.00
2022-09-02T13:45:20.778Z,2.50
2022-09-02T13:47:51.457Z,2.35
2022-09-02T13:50:22.437Z,2.53
2022-09-02T13:53:45.115Z,2.80
2022-09-02T13:55:49.954Z,3.00
2022-09-02T13:58:36.434Z,2.55
2022-09-02T14:01:24.060Z,2.92
2022-09-02T14:03:54.232Z,2.40
2022-09-02T14:06:25.098Z,2.40
2022-09-02T14:08:56.667Z,2.90
2022-09-02T14:11:25.222Z,2.50
2022-09-02T14:13:56.026Z,2.38
2022-09-02T14:16:34.092Z,2.55
2022-09-02T14:19:10.544Z,2.83
2022-09-02T14:21:45.699Z,2.45
2022-09-02T14:24:16.017Z,2.28
2022-09-02T14:26:46.838Z,2.40
2022-09-02T14:29:18.637Z,2.28
2022-09-02T14:31:47.487Z,2.20
2022-09-02T14:34:36.347Z,2.47
2022-09-02T14:37:20.376Z,2.00
2022-09-02T14:40:11.822Z,2.30
2022-09-02T14:42:56.570Z,2.42
2022-09-02T14:45:32.025Z,2.88
2022-09-02T14:48:02.777Z,2.35
2022-09-02T14:50:36.602Z,2.38
2022-09-02T14:53:08.871Z,2.40
2022-09-02T14:58:16.419Z,2.30
2022-09-02T15:00:48.525Z,2.20
2022-09-02T15:03:17.358Z,2.05
2022-09-02T15:05:46.980Z,2.13
2022-09-02T15:08:16.130Z,2.30
2022-09-02T15:10:44.993Z,2.22
2022-09-02T15:13:15.872Z,2.20
2022-09-02T15:15:43.822Z,2.30
2022-09-02T15:18:18.349Z,2.40
2022-09-02T15:20:46.445Z,2.10
2022-09-02T15:23:15.388Z,2.08
2022-09-02T15:25:43.571Z,2.10
2022-09-02T15:28:12.822Z,2.08
2022-09-02T15:30:41.225Z,1.92
2022-09-02T15:33:16.806Z,1.88
2022-09-02T15:35:47.541Z,2.05
2022-09-02T15:38:15.783Z,1.90
2022-09-02T15:40:45.171Z,2.13
2022-09-02T15:43:13.186Z,2.45
2022-09-02T15:45:47.040Z,2.05
2022-09-02T15:48:15.362Z,2.00
2022-09-02T15:50:46.460Z,2.20
2022-09-02T15:53:16.838Z,1.92
2022-09-02T15:55:44.804Z,1.80
2022-09-02T15:58:12.709Z,2.15
2022-09-02T16:00:40.716Z,2.40
2022-09-02T16:03:11.681Z,2.80
2022-09-02T16:05:39.531Z,2.05
2022-09-02T16:08:07.405Z,2.30
2022-09-02T16:10:40.167Z,2.30
2022-09-02T16:13:08.093Z,2.17
2022-09-02T16:15:35.962Z,2.30
2022-09-02T16:18:03.875Z,2.10
2022-09-02T16:20:31.745Z,2.22
2022-09-02T16:22:59.684Z,1.92
2022-09-02T16:25:27.561Z,2.10
2022-09-02T16:27:57.091Z,2.33
2022-09-02T16:30:25.679Z,2.35
2022-09-02T16:32:54.472Z,2.65
2022-09-02T16:35:22.398Z,2.10
2022-09-02T16:37:50.944Z,2.20
2022-09-02T16:40:21.502Z,2.50
2022-09-02T16:42:49.709Z,2.08
2022-09-02T16:45:19.553Z,1.88
2022-09-02T16:47:47.537Z,2.13
2022-09-02T16:50:15.594Z,2.03
2022-09-02T16:52:43.546Z,1.95
2022-09-02T16:55:11.553Z,1.90
2022-09-02T16:57:39.473Z,1.85
2022-09-02T17:00:08.803Z,2.22
2022-09-02T17:02:38.123Z,1.92
2022-09-02T17:05:07.965Z,2.10
2022-09-02T17:07:35.890Z,2.15
2022-09-02T17:10:03.825Z,2.22
2022-09-02T17:12:31.686Z,2.20
2022-09-02T17:14:59.596Z,1.98
2022-09-02T17:17:27.476Z,2.17
2022-09-02T17:19:56.727Z,2.13
2022-09-02T17:22:24.634Z,2.38
2022-09-02T17:24:55.702Z,2.58
2022-09-02T17:27:23.548Z,2.20
2022-09-02T17:29:51.508Z,2.10
2022-09-02T17:32:19.789Z,2.13
2022-09-02T17:34:49.690Z,2.17
2022-09-02T17:37:19.319Z,2.20
2022-09-02T17:39:47.316Z,2.55
2022-09-02T17:42:14.954Z,2.20
2022-09-02T17:44:42.945Z,2.30
2022-09-02T17:47:12.438Z,2.20
2022-09-02T17:49:42.186Z,2.20
2022-09-02T17:52:11.357Z,2.50
2022-09-02T17:54:42.166Z,2.30
2022-09-02T17:57:21.644Z,2.60
2022-09-02T18:00:02.879Z,2.22
2022-09-02T18:02:54.507Z,2.07
2022-09-02T18:05:28.980Z,2.53
2022-09-02T18:08:02.139Z,2.50
2022-09-02T18:10:36.317Z,2.40
2022-09-02T18:13:06.649Z,2.40
2022-09-02T18:15:43.008Z,2.38
2022-09-02T18:18:16.880Z,2.30
2022-09-02T18:20:47.747Z,2.33
2022-09-02T18:23:34.676Z,2.35
2022-09-02T18:26:13.407Z,2.20
2022-09-02T18:28:52.357Z,2.00
2022-09-02T18:31:35.978Z,2.22
2022-09-02T18:34:31.157Z,2.33
2022-09-02T18:37:07.579Z,2.25
2022-09-02T18:39:47.062Z,2.40
2022-09-02T18:42:30.292Z,2.20
2022-09-02T18:45:08.509Z,2.28
2022-09-02T18:47:43.794Z,2.22
2022-09-02T18:50:32.046Z,2.58
2022-09-02T18:53:04.716Z,2.40
2022-09-02T18:55:36.030Z,2.38
2022-09-02T18:58:11.834Z,2.40
2022-09-02T19:00:48.360Z,2.30
2022-09-02T19:03:18.507Z,2.38
2022-09-02T19:05:46.539Z,2.25
2022-09-02T19:08:30.011Z,2.25
2022-09-02T19:11:02.526Z,2.35
2022-09-02T19:13:37.864Z,2.17
2022-09-02T19:16:06.089Z,2.38
2022-09-02T19:18:34.218Z,2.42
2022-09-02T19:21:02.969Z,2.25
2022-09-02T19:23:32.023Z,2.50
2022-09-02T19:26:00.137Z,2.72
2022-09-02T19:28:28.871Z,2.58
2022-09-02T19:31:02.001Z,2.70
2022-09-02T19:33:32.339Z,2.33
2022-09-02T19:36:02.184Z,2.35
2022-09-02T19:38:30.486Z,2.38
2022-09-02T19:41:00.995Z,2.10
2022-09-02T19:43:29.186Z,2.40
2022-09-02T19:45:59.926Z,2.30
2022-09-02T19:48:28.014Z,2.10
2022-09-02T19:50:56.577Z,2.53
2022-09-02T19:53:27.906Z,2.65
2022-09-02T19:55:55.815Z,2.50
2022-09-02T19:58:24.044Z,2.33
2022-09-02T20:00:53.826Z,2.10
2022-09-02T20:03:23.190Z,2.50
2022-09-02T20:05:51.851Z,2.20
2022-09-02T20:08:20.089Z,2.75
2022-09-02T20:10:55.200Z,2.65
2022-09-02T20:13:24.315Z,2.42
2022-09-02T20:15:52.612Z,2.60
2022-09-02T20:18:22.461Z,2.70
2022-09-02T20:20:54.787Z,2.85
2022-09-02T20:26:12.243Z,3.08
2022-09-02T20:28:57.466Z,2.67
2022-09-02T20:31:37.809Z,3.17
2022-09-02T20:34:21.033Z,3.08
2022-09-02T20:36:59.978Z,2.90
2022-09-02T20:39:45.611Z,2.90
2022-09-02T20:42:30.839Z,2.53
2022-09-02T20:45:05.182Z,3.08
2022-09-02T20:47:46.277Z,2.45
2022-09-02T20:50:29.362Z,2.90
2022-09-02T20:53:12.518Z,2.70
2022-09-02T20:55:47.289Z,2.72
2022-09-02T20:58:36.240Z,2.67
2022-09-02T21:01:08.061Z,2.42
2022-09-02T21:03:44.333Z,2.58
2022-09-02T21:06:13.319Z,2.40
2022-09-02T21:08:53.243Z,2.58
2022-09-02T21:11:24.148Z,2.30
2022-09-02T21:13:58.816Z,2.25
2022-09-02T21:16:33.442Z,2.10
2022-09-02T21:19:08.773Z,2.25
2022-09-02T21:21:41.406Z,2.20
2022-09-02T21:24:14.905Z,2.13
2022-09-02T21:26:49.184Z,2.22
2022-09-02T21:29:23.819Z,2.03
2022-09-02T21:31:58.343Z,2.40
2022-09-02T21:34:30.602Z,2.10
2022-09-02T21:39:32.340Z,2.20
2022-09-02T21:42:10.864Z,1.95
2022-09-02T21:44:52.725Z,2.40
2022-09-02T21:47:24.759Z,2.60
2022-09-02T21:50:09.828Z,2.33
2022-09-02T21:52:50.752Z,1.73
2022-09-02T21:55:35.278Z,2.15
2022-09-02T21:58:18.799Z,2.38
2022-09-02T22:00:52.009Z,1.80
2022-09-02T22:03:30.205Z,1.88
2022-09-02T22:06:04.904Z,1.92
2022-09-02T22:08:42.926Z,2.28
2022-09-02T22:11:18.191Z,2.13
2022-09-02T22:13:46.359Z,2.10
2022-09-02T22:16:25.406Z,2.17
2022-09-02T22:19:01.816Z,1.70
2022-09-02T22:21:38.012Z,2.00
2022-09-02T22:24:06.796Z,2.08
2022-09-02T22:26:42.643Z,2.40
2022-09-02T22:29:18.562Z,2.20
2022-09-02T22:31:49.251Z,2.20
2022-09-02T22:34:22.131Z,2.20
2022-09-02T22:36:58.166Z,2.25
2022-09-02T22:39:34.096Z,2.28
2022-09-02T22:42:10.933Z,2.22
2022-09-02T22:45:02.807Z,2.30
2022-09-02T22:47:50.123Z,2.17
2022-09-02T22:50:42.609Z,2.25
2022-09-02T22:53:11.125Z,2.00
2022-09-02T22:55:47.372Z,2.35
2022-09-02T22:58:30.733Z,2.03
2022-09-02T23:01:09.930Z,2.00
2022-09-02T23:03:44.015Z,2.30
2022-09-02T23:06:20.946Z,1.92
2022-09-02T23:08:49.197Z,2.30
2022-09-02T23:11:27.995Z,2.30
2022-09-02T23:14:13.530Z,2.28
2022-09-02T23:17:03.734Z,2.30
2022-09-02T23:19:41.093Z,2.15
2022-09-02T23:22:17.963Z,2.40
2022-09-02T23:24:56.089Z,2.30
2022-09-02T23:27:34.405Z,2.28
2022-09-02T23:30:03.706Z,2.03
2022-09-02T23:32:53.164Z,2.15
2022-09-02T23:35:23.772Z,2.33
2022-09-02T23:38:05.444Z,2.47
2022-09-02T23:40:40.369Z,2.63
2022-09-02T23:43:09.949Z,2.28
2022-09-02T23:45:39.127Z,2.20
2022-09-02T23:48:28.789Z,1.90
2022-09-02T23:51:13.799Z,2.33
2022-09-02T23:53:55.008Z,2.28
2022-09-02T23:56:35.060Z,2.17
2022-09-02T23:59:18.143Z,2.67
